sensor_id;sensor_type;location;lat;lon;timestamp;pressure;altitude;pressure_sealevel;temperature;humidity
61898;BME280;47850;50.274;18.908;2023-05-10T00:01:43;98303.48;;;7.60;56.79
61898;BME280;47850;50.274;18.908;2023-05-10T00:04:10;98302.21;;;7.57;57.02
61898;BME280;47850;50.274;18.908;2023-05-10T00:06:38;98298.40;;;7.55;56.85
61898;BME280;47850;50.274;18.908;2023-05-10T00:09:06;98298.48;;;7.52;56.92
61898;BME280;47850;50.274;18.908;2023-05-10T00:11:33;98298.10;;;7.49;57.33
61898;BME280;47850;50.274;18.908;2023-05-10T00:14:01;98296.37;;;7.46;57.11
61898;BME280;47850;50.274;18.908;2023-05-10T00:16:29;98292.98;;;7.44;57.18
61898;BME280;47850;50.274;18.908;2023-05-10T00:18:56;98290.38;;;7.41;57.37
61898;BME280;47850;50.274;18.908;2023-05-10T00:21:24;98295.52;;;7.37;57.39
61898;BME280;47850;50.274;18.908;2023-05-10T00:23:52;98291.33;;;7.34;57.71
61898;BME280;47850;50.274;18.908;2023-05-10T00:26:19;98289.80;;;7.31;58.08
61898;BME280;47850;50.274;18.908;2023-05-10T00:28:47;98290.19;;;7.27;58.13
61898;BME280;47850;50.274;18.908;2023-05-10T00:31:15;98287.74;;;7.24;58.43
61898;BME280;47850;50.274;18.908;2023-05-10T00:33:42;98282.75;;;7.21;58.48
61898;BME280;47850;50.274;18.908;2023-05-10T00:36:10;98282.80;;;7.18;58.31
61898;BME280;47850;50.274;18.908;2023-05-10T00:38:38;98282.91;;;7.14;58.52
61898;BME280;47850;50.274;18.908;2023-05-10T00:41:05;98284.13;;;7.11;58.58
61898;BME280;47850;50.274;18.908;2023-05-10T00:43:34;98283.33;;;7.08;58.92
61898;BME280;47850;50.274;18.908;2023-05-10T00:46:01;98277.77;;;7.05;58.72
61898;BME280;47850;50.274;18.908;2023-05-10T00:48:29;98278.84;;;7.02;59.06
61898;BME280;47850;50.274;18.908;2023-05-10T00:50:57;98277.59;;;6.98;59.16
61898;BME280;47850;50.274;18.908;2023-05-10T00:53:24;98275.98;;;6.97;59.19
61898;BME280;47850;50.274;18.908;2023-05-10T00:55:52;98278.11;;;6.96;59.47
61898;BME280;47850;50.274;18.908;2023-05-10T00:58:20;98270.02;;;6.93;59.09
61898;BME280;47850;50.274;18.908;2023-05-10T01:00:48;98272.30;;;6.89;59.41
61898;BME280;47850;50.274;18.908;2023-05-10T01:03:17;98270.08;;;6.85;59.29
61898;BME280;47850;50.274;18.908;2023-05-10T01:05:44;98268.25;;;6.83;59.58
61898;BME280;47850;50.274;18.908;2023-05-10T01:08:12;98270.73;;;6.81;59.96
61898;BME280;47850;50.274;18.908;2023-05-10T01:10:40;98266.15;;;6.79;59.91
61898;BME280;47850;50.274;18.908;2023-05-10T01:13:08;98266.38;;;6.78;59.88
61898;BME280;47850;50.274;18.908;2023-05-10T01:15:36;98266.79;;;6.76;60.11
61898;BME280;47850;50.274;18.908;2023-05-10T01:18:05;98264.38;;;6.74;60.13
61898;BME280;47850;50.274;18.908;2023-05-10T01:20:35;98260.35;;;6.71;59.85
61898;BME280;47850;50.274;18.908;2023-05-10T01:25:53;98254.95;;;6.65;60.28
61898;BME280;47850;50.274;18.908;2023-05-10T01:28:32;98256.84;;;6.62;60.54
61898;BME280;47850;50.274;18.908;2023-05-10T01:38:42;98256.04;;;6.52;60.61
61898;BME280;47850;50.274;18.908;2023-05-10T01:41:25;98252.98;;;6.50;60.93
61898;BME280;47850;50.274;18.908;2023-05-10T01:43:57;98253.64;;;6.48;61.46
61898;BME280;47850;50.274;18.908;2023-05-10T01:46:33;98251.22;;;6.47;61.06
61898;BME280;47850;50.274;18.908;2023-05-10T01:49:03;98248.23;;;6.44;61.24
61898;BME280;47850;50.274;18.908;2023-05-10T01:51:36;98245.23;;;6.42;61.27
61898;BME280;47850;50.274;18.908;2023-05-10T01:54:06;98246.92;;;6.39;61.45
61898;BME280;47850;50.274;18.908;2023-05-10T01:56:36;98247.01;;;6.37;61.42
61898;BME280;47850;50.274;18.908;2023-05-10T01:59:06;98246.52;;;6.34;61.58
61898;BME280;47850;50.274;18.908;2023-05-10T02:01:36;98246.16;;;6.31;61.64
61898;BME280;47850;50.274;18.908;2023-05-10T02:04:04;98246.02;;;6.29;61.95
61898;BME280;47850;50.274;18.908;2023-05-10T02:06:33;98245.12;;;6.24;62.47
61898;BME280;47850;50.274;18.908;2023-05-10T02:09:02;98240.73;;;6.19;62.68
61898;BME280;47850;50.274;18.908;2023-05-10T02:11:30;98239.21;;;6.14;62.88
61898;BME280;47850;50.274;18.908;2023-05-10T02:13:58;98238.80;;;6.08;63.25
61898;BME280;47850;50.274;18.908;2023-05-10T02:16:27;98233.80;;;6.04;63.12
61898;BME280;47850;50.274;18.908;2023-05-10T02:18:58;98231.66;;;6.01;63.53
61898;BME280;47850;50.274;18.908;2023-05-10T02:21:26;98230.39;;;5.99;63.64
61898;BME280;47850;50.274;18.908;2023-05-10T02:23:56;98228.02;;;5.97;63.83
61898;BME280;47850;50.274;18.908;2023-05-10T02:26:24;98227.54;;;5.95;63.60
61898;BME280;47850;50.274;18.908;2023-05-10T02:28:53;98224.97;;;5.91;63.70
61898;BME280;47850;50.274;18.908;2023-05-10T02:31:22;98223.76;;;5.89;63.78
61898;BME280;47850;50.274;18.908;2023-05-10T02:33:50;98223.18;;;5.88;64.05
61898;BME280;47850;50.274;18.908;2023-05-10T02:36:19;98225.30;;;5.85;64.29
61898;BME280;47850;50.274;18.908;2023-05-10T02:38:48;98227.84;;;5.82;64.54
61898;BME280;47850;50.274;18.908;2023-05-10T02:41:17;98223.48;;;5.79;64.83
61898;BME280;47850;50.274;18.908;2023-05-10T02:43:45;98223.84;;;5.76;64.71
61898;BME280;47850;50.274;18.908;2023-05-10T02:46:14;98224.05;;;5.71;65.12
61898;BME280;47850;50.274;18.908;2023-05-10T02:48:42;98224.97;;;5.66;64.99
61898;BME280;47850;50.274;18.908;2023-05-10T02:51:09;98219.14;;;5.64;65.15
61898;BME280;47850;50.274;18.908;2023-05-10T02:53:40;98223.65;;;5.62;65.86
61898;BME280;47850;50.274;18.908;2023-05-10T02:56:15;98227.50;;;5.62;65.94
61898;BME280;47850;50.274;18.908;2023-05-10T02:58:44;98227.98;;;5.63;66.00
61898;BME280;47850;50.274;18.908;2023-05-10T03:01:12;98227.60;;;5.63;65.63
61898;BME280;47850;50.274;18.908;2023-05-10T03:03:40;98226.79;;;5.62;65.82
61898;BME280;47850;50.274;18.908;2023-05-10T03:06:07;98227.11;;;5.62;66.12
61898;BME280;47850;50.274;18.908;2023-05-10T03:08:35;98227.73;;;5.59;66.44
61898;BME280;47850;50.274;18.908;2023-05-10T03:13:42;98230.11;;;5.54;66.22
61898;BME280;47850;50.274;18.908;2023-05-10T03:16:15;98226.71;;;5.53;66.25
61898;BME280;47850;50.274;18.908;2023-05-10T03:18:44;98225.52;;;5.52;66.28
61898;BME280;47850;50.274;18.908;2023-05-10T03:21:14;98225.20;;;5.52;66.46
61898;BME280;47850;50.274;18.908;2023-05-10T03:23:50;98225.05;;;5.50;66.62
61898;BME280;47850;50.274;18.908;2023-05-10T03:26:20;98226.67;;;5.50;66.88
61898;BME280;47850;50.274;18.908;2023-05-10T03:28:49;98225.97;;;5.51;66.75
61898;BME280;47850;50.274;18.908;2023-05-10T03:31:17;98226.61;;;5.51;66.49
61898;BME280;47850;50.274;18.908;2023-05-10T03:33:46;98224.66;;;5.52;66.69
61898;BME280;47850;50.274;18.908;2023-05-10T03:36:14;98220.38;;;5.53;66.60
61898;BME280;47850;50.274;18.908;2023-05-10T03:38:41;98222.80;;;5.53;67.27
61898;BME280;47850;50.274;18.908;2023-05-10T03:41:09;98217.23;;;5.53;67.17
61898;BME280;47850;50.274;18.908;2023-05-10T03:43:37;98214.84;;;5.54;67.45
61898;BME280;47850;50.274;18.908;2023-05-10T03:46:05;98214.46;;;5.55;67.63
61898;BME280;47850;50.274;18.908;2023-05-10T03:48:33;98217.45;;;5.58;67.24
61898;BME280;47850;50.274;18.908;2023-05-10T03:51:01;98211.48;;;5.61;67.39
61898;BME280;47850;50.274;18.908;2023-05-10T03:53:28;98210.77;;;5.63;67.30
61898;BME280;47850;50.274;18.908;2023-05-10T03:55:56;98213.11;;;5.65;67.17
61898;BME280;47850;50.274;18.908;2023-05-10T03:58:24;98213.15;;;5.68;66.90
61898;BME280;47850;50.274;18.908;2023-05-10T04:00:51;98215.17;;;5.71;66.89
61898;BME280;47850;50.274;18.908;2023-05-10T04:03:19;98215.94;;;5.76;66.75
61898;BME280;47850;50.274;18.908;2023-05-10T04:05:47;98217.84;;;5.80;66.91
61898;BME280;47850;50.274;18.908;2023-05-10T04:08:15;98214.71;;;5.84;66.68
61898;BME280;47850;50.274;18.908;2023-05-10T04:10:43;98218.34;;;5.89;66.64
61898;BME280;47850;50.274;18.908;2023-05-10T04:13:11;98219.85;;;5.95;66.50
61898;BME280;47850;50.274;18.908;2023-05-10T04:15:39;98217.92;;;5.99;66.04
61898;BME280;47850;50.274;18.908;2023-05-10T04:18:07;98222.96;;;6.04;65.86
61898;BME280;47850;50.274;18.908;2023-05-10T04:20:35;98223.45;;;6.09;66.02
61898;BME280;47850;50.274;18.908;2023-05-10T04:23:03;98221.89;;;6.12;65.69
61898;BME280;47850;50.274;18.908;2023-05-10T04:25:33;98222.29;;;6.17;65.72
61898;BME280;47850;50.274;18.908;2023-05-10T04:28:01;98224.55;;;6.22;65.59
61898;BME280;47850;50.274;18.908;2023-05-10T04:30:28;98222.80;;;6.28;65.46
61898;BME280;47850;50.274;18.908;2023-05-10T04:32:56;98222.67;;;6.34;65.37
61898;BME280;47850;50.274;18.908;2023-05-10T04:35:24;98224.92;;;6.39;65.23
61898;BME280;47850;50.274;18.908;2023-05-10T04:37:52;98218.80;;;6.44;65.16
61898;BME280;47850;50.274;18.908;2023-05-10T04:40:19;98218.25;;;6.49;65.03
61898;BME280;47850;50.274;18.908;2023-05-10T04:42:47;98222.59;;;6.53;64.97
61898;BME280;47850;50.274;18.908;2023-05-10T04:45:15;98224.34;;;6.61;64.60
61898;BME280;47850;50.274;18.908;2023-05-10T04:47:43;98222.83;;;6.68;64.47
61898;BME280;47850;50.274;18.908;2023-05-10T04:50:13;98226.23;;;6.77;64.10
61898;BME280;47850;50.274;18.908;2023-05-10T04:52:41;98226.27;;;6.85;63.89
61898;BME280;47850;50.274;18.908;2023-05-10T04:55:08;98227.13;;;6.94;63.50
61898;BME280;47850;50.274;18.908;2023-05-10T04:57:37;98226.52;;;7.02;63.17
61898;BME280;47850;50.274;18.908;2023-05-10T05:00:05;98227.95;;;7.11;62.91
61898;BME280;47850;50.274;18.908;2023-05-10T05:02:33;98222.02;;;7.20;62.72
61898;BME280;47850;50.274;18.908;2023-05-10T05:05:00;98225.55;;;7.29;62.51
61898;BME280;47850;50.274;18.908;2023-05-10T05:07:28;98225.09;;;7.38;62.12
61898;BME280;47850;50.274;18.908;2023-05-10T05:09:58;98222.55;;;7.46;61.88
61898;BME280;47850;50.274;18.908;2023-05-10T05:12:25;98221.11;;;7.55;61.80
61898;BME280;47850;50.274;18.908;2023-05-10T05:14:53;98222.35;;;7.62;61.70
61898;BME280;47850;50.274;18.908;2023-05-10T05:17:20;98222.97;;;7.71;61.19
61898;BME280;47850;50.274;18.908;2023-05-10T05:19:48;98220.52;;;7.79;60.59
61898;BME280;47850;50.274;18.908;2023-05-10T05:22:16;98216.67;;;7.88;60.39
61898;BME280;47850;50.274;18.908;2023-05-10T05:24:44;98216.45;;;7.96;60.04
61898;BME280;47850;50.274;18.908;2023-05-10T05:27:12;98217.63;;;8.05;60.01
61898;BME280;47850;50.274;18.908;2023-05-10T05:29:40;98214.54;;;8.14;60.15
61898;BME280;47850;50.274;18.908;2023-05-10T05:32:08;98216.94;;;8.22;59.74
61898;BME280;47850;50.274;18.908;2023-05-10T05:34:36;98215.46;;;8.30;59.53
61898;BME280;47850;50.274;18.908;2023-05-10T05:37:04;98214.19;;;8.40;59.23
61898;BME280;47850;50.274;18.908;2023-05-10T05:39:31;98214.35;;;8.49;58.97
61898;BME280;47850;50.274;18.908;2023-05-10T05:41:59;98212.30;;;8.59;58.65
61898;BME280;47850;50.274;18.908;2023-05-10T05:44:27;98210.53;;;8.68;58.60
61898;BME280;47850;50.274;18.908;2023-05-10T05:46:56;98215.30;;;8.75;58.37
61898;BME280;47850;50.274;18.908;2023-05-10T05:49:23;98212.63;;;8.84;58.14
61898;BME280;47850;50.274;18.908;2023-05-10T05:51:51;98213.42;;;8.91;57.42
61898;BME280;47850;50.274;18.908;2023-05-10T05:54:19;98217.21;;;9.00;57.32
61898;BME280;47850;50.274;18.908;2023-05-10T05:56:47;98215.60;;;9.08;57.30
61898;BME280;47850;50.274;18.908;2023-05-10T05:59:15;98218.80;;;9.16;57.22
61898;BME280;47850;50.274;18.908;2023-05-10T06:01:42;98220.14;;;9.23;57.33
61898;BME280;47850;50.274;18.908;2023-05-10T06:04:10;98215.38;;;9.31;57.10
61898;BME280;47850;50.274;18.908;2023-05-10T06:06:38;98213.75;;;9.42;56.76
61898;BME280;47850;50.274;18.908;2023-05-10T06:09:06;98209.67;;;9.55;55.78
61898;BME280;47850;50.274;18.908;2023-05-10T06:11:33;98212.70;;;9.68;54.94
61898;BME280;47850;50.274;18.908;2023-05-10T06:14:02;98211.06;;;9.83;55.08
61898;BME280;47850;50.274;18.908;2023-05-10T06:16:31;98213.15;;;9.97;54.28
61898;BME280;47850;50.274;18.908;2023-05-10T06:18:59;98215.48;;;10.10;53.92
61898;BME280;47850;50.274;18.908;2023-05-10T06:21:27;98211.80;;;10.24;53.82
61898;BME280;47850;50.274;18.908;2023-05-10T06:23:55;98216.66;;;10.36;52.86
61898;BME280;47850;50.274;18.908;2023-05-10T06:26:22;98213.92;;;10.48;52.32
61898;BME280;47850;50.274;18.908;2023-05-10T06:28:50;98214.27;;;10.59;51.19
61898;BME280;47850;50.274;18.908;2023-05-10T06:31:18;98220.31;;;10.71;50.78
61898;BME280;47850;50.274;18.908;2023-05-10T06:33:46;98222.66;;;10.81;50.59
61898;BME280;47850;50.274;18.908;2023-05-10T06:36:13;98214.99;;;10.94;49.94
61898;BME280;47850;50.274;18.908;2023-05-10T06:38:41;98221.55;;;11.10;49.61
61898;BME280;47850;50.274;18.908;2023-05-10T06:41:09;98220.16;;;11.23;48.70
61898;BME280;47850;50.274;18.908;2023-05-10T06:43:36;98217.55;;;11.35;48.51
61898;BME280;47850;50.274;18.908;2023-05-10T06:46:07;98214.92;;;11.46;47.79
61898;BME280;47850;50.274;18.908;2023-05-10T06:48:35;98213.95;;;11.56;47.13
61898;BME280;47850;50.274;18.908;2023-05-10T06:51:02;98211.55;;;11.66;47.26
61898;BME280;47850;50.274;18.908;2023-05-10T06:53:30;98213.99;;;11.78;47.34
61898;BME280;47850;50.274;18.908;2023-05-10T06:55:58;98215.63;;;11.89;47.15
61898;BME280;47850;50.274;18.908;2023-05-10T06:58:25;98215.70;;;12.00;46.40
61898;BME280;47850;50.274;18.908;2023-05-10T07:00:53;98212.09;;;12.11;46.13
61898;BME280;47850;50.274;18.908;2023-05-10T07:03:21;98211.09;;;12.19;45.57
61898;BME280;47850;50.274;18.908;2023-05-10T07:05:48;98211.56;;;12.27;45.12
61898;BME280;47850;50.274;18.908;2023-05-10T07:08:16;98207.89;;;12.37;44.83
61898;BME280;47850;50.274;18.908;2023-05-10T07:10:44;98203.46;;;12.45;44.69
61898;BME280;47850;50.274;18.908;2023-05-10T07:13:11;98200.66;;;12.56;44.29
61898;BME280;47850;50.274;18.908;2023-05-10T07:15:39;98197.98;;;12.68;44.13
61898;BME280;47850;50.274;18.908;2023-05-10T07:18:06;98200.33;;;12.76;43.59
61898;BME280;47850;50.274;18.908;2023-05-10T07:20:34;98203.41;;;12.87;44.11
61898;BME280;47850;50.274;18.908;2023-05-10T07:23:02;98202.35;;;12.99;42.65
61898;BME280;47850;50.274;18.908;2023-05-10T07:25:29;98201.80;;;13.08;42.28
61898;BME280;47850;50.274;18.908;2023-05-10T07:27:57;98201.35;;;13.15;42.26
61898;BME280;47850;50.274;18.908;2023-05-10T07:30:25;98198.33;;;13.22;42.94
61898;BME280;47850;50.274;18.908;2023-05-10T07:32:52;98197.31;;;13.31;42.88
61898;BME280;47850;50.274;18.908;2023-05-10T07:35:20;98193.65;;;13.42;42.19
61898;BME280;47850;50.274;18.908;2023-05-10T07:37:48;98189.96;;;13.53;41.38
61898;BME280;47850;50.274;18.908;2023-05-10T07:40:15;98190.39;;;13.61;41.18
61898;BME280;47850;50.274;18.908;2023-05-10T07:42:43;98188.55;;;13.69;41.88
61898;BME280;47850;50.274;18.908;2023-05-10T07:45:11;98188.87;;;13.76;41.32
61898;BME280;47850;50.274;18.908;2023-05-10T07:47:38;98193.64;;;13.83;40.93
61898;BME280;47850;50.274;18.908;2023-05-10T07:50:06;98189.44;;;13.91;40.33
61898;BME280;47850;50.274;18.908;2023-05-10T07:52:34;98191.05;;;13.97;39.93
61898;BME280;47850;50.274;18.908;2023-05-10T07:55:02;98192.05;;;14.04;39.99
61898;BME280;47850;50.274;18.908;2023-05-10T07:57:30;98187.64;;;14.13;39.41
61898;BME280;47850;50.274;18.908;2023-05-10T07:59:58;98190.52;;;14.22;38.76
61898;BME280;47850;50.274;18.908;2023-05-10T08:02:25;98193.89;;;14.32;39.24
61898;BME280;47850;50.274;18.908;2023-05-10T08:04:53;98194.30;;;14.40;38.17
61898;BME280;47850;50.274;18.908;2023-05-10T08:07:21;98187.45;;;14.47;38.00
61898;BME280;47850;50.274;18.908;2023-05-10T08:09:49;98185.90;;;14.56;37.77
61898;BME280;47850;50.274;18.908;2023-05-10T08:12:16;98184.61;;;14.63;37.14
61898;BME280;47850;50.274;18.908;2023-05-10T08:14:44;98183.21;;;14.70;37.29
61898;BME280;47850;50.274;18.908;2023-05-10T08:17:12;98183.05;;;14.77;37.03
61898;BME280;47850;50.274;18.908;2023-05-10T08:19:39;98182.86;;;14.84;37.00
61898;BME280;47850;50.274;18.908;2023-05-10T08:22:07;98180.64;;;14.94;37.17
61898;BME280;47850;50.274;18.908;2023-05-10T08:24:35;98183.35;;;15.04;37.12
61898;BME280;47850;50.274;18.908;2023-05-10T08:27:05;98181.08;;;15.10;36.51
61898;BME280;47850;50.274;18.908;2023-05-10T08:29:33;98182.75;;;15.16;36.55
61898;BME280;47850;50.274;18.908;2023-05-10T08:32:01;98181.21;;;15.24;36.62
61898;BME280;47850;50.274;18.908;2023-05-10T08:34:29;98180.44;;;15.29;36.28
61898;BME280;47850;50.274;18.908;2023-05-10T08:36:58;98183.16;;;15.34;36.35
61898;BME280;47850;50.274;18.908;2023-05-10T08:39:26;98180.52;;;15.41;36.71
61898;BME280;47850;50.274;18.908;2023-05-10T08:41:54;98177.09;;;15.48;36.11
61898;BME280;47850;50.274;18.908;2023-05-10T08:44:27;98181.08;;;15.56;37.00
61898;BME280;47850;50.274;18.908;2023-05-10T08:46:55;98183.71;;;15.67;36.08
61898;BME280;47850;50.274;18.908;2023-05-10T08:49:23;98180.31;;;15.75;35.14
61898;BME280;47850;50.274;18.908;2023-05-10T08:51:54;98178.64;;;15.81;35.47
61898;BME280;47850;50.274;18.908;2023-05-10T08:54:23;98172.80;;;15.88;35.60
61898;BME280;47850;50.274;18.908;2023-05-10T08:56:52;98183.27;;;15.95;35.16
61898;BME280;47850;50.274;18.908;2023-05-10T08:59:20;98185.73;;;16.00;34.93
61898;BME280;47850;50.274;18.908;2023-05-10T09:01:48;98183.42;;;16.05;35.28
61898;BME280;47850;50.274;18.908;2023-05-10T09:04:17;98184.16;;;16.08;35.06
61898;BME280;47850;50.274;18.908;2023-05-10T09:06:46;98190.12;;;16.19;34.94
61898;BME280;47850;50.274;18.908;2023-05-10T09:09:13;98184.02;;;16.27;34.66
61898;BME280;47850;50.274;18.908;2023-05-10T09:11:42;98187.23;;;16.33;34.78
61898;BME280;47850;50.274;18.908;2023-05-10T09:14:10;98185.31;;;16.41;34.62
61898;BME280;47850;50.274;18.908;2023-05-10T09:16:40;98185.13;;;16.51;34.55
61898;BME280;47850;50.274;18.908;2023-05-10T09:19:09;98186.64;;;16.58;34.31
61898;BME280;47850;50.274;18.908;2023-05-10T09:21:37;98185.72;;;16.67;33.99
61898;BME280;47850;50.274;18.908;2023-05-10T09:24:08;98181.32;;;16.74;34.02
61898;BME280;47850;50.274;18.908;2023-05-10T09:26:39;98184.27;;;16.84;33.70
61898;BME280;47850;50.274;18.908;2023-05-10T09:29:12;98189.02;;;16.96;33.17
61898;BME280;47850;50.274;18.908;2023-05-10T09:31:50;98188.30;;;16.99;33.47
61898;BME280;47850;50.274;18.908;2023-05-10T09:34:19;98187.20;;;17.06;33.49
61898;BME280;47850;50.274;18.908;2023-05-10T09:36:54;98185.88;;;17.14;33.42
61898;BME280;47850;50.274;18.908;2023-05-10T09:39:33;98184.59;;;17.24;32.41
61898;BME280;47850;50.274;18.908;2023-05-10T09:42:05;98182.05;;;17.28;32.54
61898;BME280;47850;50.274;18.908;2023-05-10T09:44:33;98180.39;;;17.39;33.01
61898;BME280;47850;50.274;18.908;2023-05-10T09:47:01;98176.10;;;17.55;33.24
61898;BME280;47850;50.274;18.908;2023-05-10T09:49:30;98178.29;;;17.72;32.77
61898;BME280;47850;50.274;18.908;2023-05-10T09:54:29;98180.53;;;18.05;31.27
61898;BME280;47850;50.274;18.908;2023-05-10T09:56:56;98176.00;;;18.08;30.95
61898;BME280;47850;50.274;18.908;2023-05-10T09:59:25;98172.15;;;18.14;31.66
61898;BME280;47850;50.274;18.908;2023-05-10T10:01:58;98171.42;;;18.32;32.12
61898;BME280;47850;50.274;18.908;2023-05-10T10:04:26;98164.39;;;18.49;31.44
61898;BME280;47850;50.274;18.908;2023-05-10T10:06:58;98173.76;;;18.58;30.57
61898;BME280;47850;50.274;18.908;2023-05-10T10:09:29;98165.23;;;18.64;30.56
61898;BME280;47850;50.274;18.908;2023-05-10T10:11:57;98163.48;;;18.80;30.64
61898;BME280;47850;50.274;18.908;2023-05-10T10:14:24;98165.08;;;18.88;29.82
61898;BME280;47850;50.274;18.908;2023-05-10T10:16:52;98162.33;;;18.93;30.08
61898;BME280;47850;50.274;18.908;2023-05-10T10:19:20;98159.78;;;19.10;30.75
61898;BME280;47850;50.274;18.908;2023-05-10T10:21:51;98158.69;;;19.32;31.00
61898;BME280;47850;50.274;18.908;2023-05-10T10:24:19;98150.72;;;19.56;29.84
61898;BME280;47850;50.274;18.908;2023-05-10T10:26:47;98145.33;;;19.79;29.38
61898;BME280;47850;50.274;18.908;2023-05-10T10:29:23;98154.11;;;19.97;28.94
61898;BME280;47850;50.274;18.908;2023-05-10T10:32:18;98152.70;;;19.97;28.27
61898;BME280;47850;50.274;18.908;2023-05-10T10:34:47;98151.40;;;19.93;28.18
61898;BME280;47850;50.274;18.908;2023-05-10T10:37:15;98140.95;;;19.92;28.93
61898;BME280;47850;50.274;18.908;2023-05-10T10:39:43;98136.98;;;20.00;29.38
61898;BME280;47850;50.274;18.908;2023-05-10T10:42:11;98135.35;;;20.27;29.84
61898;BME280;47850;50.274;18.908;2023-05-10T10:44:39;98134.57;;;20.52;28.64
61898;BME280;47850;50.274;18.908;2023-05-10T10:50:01;98140.19;;;20.79;28.09
61898;BME280;47850;50.274;18.908;2023-05-10T10:52:36;98139.75;;;20.85;27.66
61898;BME280;47850;50.274;18.908;2023-05-10T10:55:11;98137.98;;;20.80;27.77
61898;BME280;47850;50.274;18.908;2023-05-10T11:00:17;98129.86;;;21.08;27.30
61898;BME280;47850;50.274;18.908;2023-05-10T11:02:46;98130.45;;;21.17;27.07
61898;BME280;47850;50.274;18.908;2023-05-10T11:05:51;98123.31;;;21.56;27.50
61898;BME280;47850;50.274;18.908;2023-05-10T11:10:38;98125.90;;;21.76;26.27
61898;BME280;47850;50.274;18.908;2023-05-10T11:13:07;98124.70;;;21.72;26.93
61898;BME280;47850;50.274;18.908;2023-05-10T11:15:36;98122.17;;;21.84;27.16
61898;BME280;47850;50.274;18.908;2023-05-10T11:18:20;98121.38;;;22.12;26.45
61898;BME280;47850;50.274;18.908;2023-05-10T11:20:51;98119.22;;;22.14;26.10
61898;BME280;47850;50.274;18.908;2023-05-10T11:23:19;98117.93;;;22.35;26.19
61898;BME280;47850;50.274;18.908;2023-05-10T11:25:48;98120.60;;;22.58;25.67
61898;BME280;47850;50.274;18.908;2023-05-10T11:28:17;98114.11;;;22.72;26.15
61898;BME280;47850;50.274;18.908;2023-05-10T11:30:46;98110.83;;;23.16;25.54
61898;BME280;47850;50.274;18.908;2023-05-10T11:33:15;98115.45;;;23.46;24.97
61898;BME280;47850;50.274;18.908;2023-05-10T11:35:43;98115.30;;;23.56;24.74
61898;BME280;47850;50.274;18.908;2023-05-10T11:38:11;98113.78;;;23.68;24.46
61898;BME280;47850;50.274;18.908;2023-05-10T11:40:39;98114.66;;;23.86;23.79
61898;BME280;47850;50.274;18.908;2023-05-10T11:43:08;98113.61;;;23.92;23.38
61898;BME280;47850;50.274;18.908;2023-05-10T11:45:36;98106.10;;;24.06;23.24
61898;BME280;47850;50.274;18.908;2023-05-10T11:48:04;98107.55;;;23.92;23.42
61898;BME280;47850;50.274;18.908;2023-05-10T11:50:32;98107.12;;;23.76;23.89
61898;BME280;47850;50.274;18.908;2023-05-10T11:53:00;98106.13;;;23.60;24.17
61898;BME280;47850;50.274;18.908;2023-05-10T11:55:27;98106.09;;;23.27;23.94
61898;BME280;47850;50.274;18.908;2023-05-10T11:58:00;98105.78;;;22.71;24.21
61898;BME280;47850;50.274;18.908;2023-05-10T12:00:28;98106.11;;;22.24;24.62
61898;BME280;47850;50.274;18.908;2023-05-10T12:02:56;98105.47;;;22.37;25.41
61898;BME280;47850;50.274;18.908;2023-05-10T12:05:24;98102.80;;;22.58;25.26
61898;BME280;47850;50.274;18.908;2023-05-10T12:07:52;98101.73;;;22.92;24.52
61898;BME280;47850;50.274;18.908;2023-05-10T12:10:24;98104.67;;;23.23;24.28
61898;BME280;47850;50.274;18.908;2023-05-10T12:12:52;98097.29;;;23.50;23.65
61898;BME280;47850;50.274;18.908;2023-05-10T12:15:21;98100.48;;;23.59;24.06
61898;BME280;47850;50.274;18.908;2023-05-10T12:17:49;98095.86;;;23.92;23.90
61898;BME280;47850;50.274;18.908;2023-05-10T12:20:18;98099.17;;;24.22;23.84
61898;BME280;47850;50.274;18.908;2023-05-10T12:22:47;98097.25;;;24.62;23.65
61898;BME280;47850;50.274;18.908;2023-05-10T12:25:17;98099.34;;;25.13;23.28
61898;BME280;47850;50.274;18.908;2023-05-10T12:27:51;98096.56;;;25.24;23.18
61898;BME280;47850;50.274;18.908;2023-05-10T12:30:23;98098.53;;;24.83;22.79
61898;BME280;47850;50.274;18.908;2023-05-10T12:32:51;98092.55;;;24.32;23.72
61898;BME280;47850;50.274;18.908;2023-05-10T12:35:19;98089.05;;;24.00;24.64
61898;BME280;47850;50.274;18.908;2023-05-10T12:37:51;98083.80;;;23.77;24.68
61898;BME280;47850;50.274;18.908;2023-05-10T12:40:19;98091.66;;;23.70;24.83
61898;BME280;47850;50.274;18.908;2023-05-10T12:42:46;98085.16;;;23.97;25.19
61898;BME280;47850;50.274;18.908;2023-05-10T12:45:14;98079.67;;;24.05;25.04
61898;BME280;47850;50.274;18.908;2023-05-10T12:47:42;98085.92;;;23.91;23.93
61898;BME280;47850;50.274;18.908;2023-05-10T12:50:10;98082.54;;;23.55;24.05
61898;BME280;47850;50.274;18.908;2023-05-10T12:52:39;98079.55;;;23.10;24.59
61898;BME280;47850;50.274;18.908;2023-05-10T12:55:07;98076.39;;;22.75;24.99
61898;BME280;47850;50.274;18.908;2023-05-10T12:57:38;98072.20;;;22.41;25.08
61898;BME280;47850;50.274;18.908;2023-05-10T13:00:06;98067.41;;;22.14;25.40
61898;BME280;47850;50.274;18.908;2023-05-10T13:02:34;98068.23;;;21.98;26.08
61898;BME280;47850;50.274;18.908;2023-05-10T13:05:02;98068.95;;;21.90;26.04
61898;BME280;47850;50.274;18.908;2023-05-10T13:07:30;98065.57;;;21.73;26.12
61898;BME280;47850;50.274;18.908;2023-05-10T13:09:58;98066.35;;;21.67;26.47
61898;BME280;47850;50.274;18.908;2023-05-10T13:12:26;98065.08;;;21.80;26.36
61898;BME280;47850;50.274;18.908;2023-05-10T13:14:53;98062.38;;;21.95;26.17
61898;BME280;47850;50.274;18.908;2023-05-10T13:17:21;98060.84;;;22.09;25.39
61898;BME280;47850;50.274;18.908;2023-05-10T13:19:49;98057.15;;;22.23;26.22
61898;BME280;47850;50.274;18.908;2023-05-10T13:22:19;98062.14;;;22.39;26.23
61898;BME280;47850;50.274;18.908;2023-05-10T13:24:47;98054.04;;;22.42;25.99
61898;BME280;47850;50.274;18.908;2023-05-10T13:27:15;98056.54;;;22.19;25.48